Terminal Aerodrome Forecast
Issued by NWS

Home | Current Version | Previous Version | Text Only | Print | Product List | Glossary On
Versions: 1 2 3 4 5 6 7 8 9 10 11 12 13 14 15 16 17 18 19 20 21
000
FTUS44 KLUB 290500
TAFCDS
TAF
KCDS 290520Z 2906/3006 08006KT P6SM BKN250
     FM291500 VRB04KT P6SM SCT250 PROB30 2918/2923 -TSRA SCT070CB=

USA.gov is the U.S. government's official web portal to all federal, state and local government web resources and services.